Time;durP1;ratioP1;P1;durP2;ratioP2;P2;SDS_P1;SDS_P2;PMS_P1;PMS_P2;Temp;Humidity;BMP_temperature;BMP_pressure;BME280_temperature;BME280_humidity;BME280_pressure;Samples;Min_cycle;Max_cycle;Signal;HPM_P1;HPM_P2
2022/09/22 00:00:06;;;;;;;6.90;3.22;;;;;;;13.45;60.11;100834.41;5018522;28;20045;-55
2022/09/22 00:02:33;;;;;;;8.13;3.33;;;;;;;13.42;60.21;100830.09;5015672;28;20060;-53
2022/09/22 00:05:00;;;;;;;7.68;3.55;;;;;;;13.39;59.73;100830.09;5018548;28;20775;-52
2022/09/22 00:07:27;;;;;;;6.18;3.40;;;;;;;13.36;59.51;100820.56;5020221;28;20045;-50
2022/09/22 00:09:53;;;;;;;9.15;4.07;;;;;;;13.35;60.12;100826.59;5022601;28;20072;-52
2022/09/22 00:12:21;;;;;;;8.82;3.85;;;;;;;13.32;60.39;100824.03;5023076;28;20180;-54
2022/09/22 00:14:48;;;;;;;6.43;3.20;;;;;;;13.30;60.55;100824.88;5023886;28;20041;-50
2022/09/22 00:17:14;;;;;;;7.82;3.83;;;;;;;13.26;60.10;100818.81;5020936;28;20108;-51
2022/09/22 00:19:41;;;;;;;6.45;3.28;;;;;;;13.24;61.12;100815.34;5017178;28;20157;-48
2022/09/22 00:22:07;;;;;;;5.35;2.88;;;;;;;13.23;60.85;100813.63;5016326;28;20158;-49
2022/09/22 00:24:34;;;;;;;8.18;3.13;;;;;;;13.20;60.99;100811.00;5014751;28;20153;-52
2022/09/22 00:27:01;;;;;;;4.47;2.28;;;;;;;13.18;60.34;100808.44;5020184;28;20081;-50
2022/09/22 00:29:29;;;;;;;5.95;3.28;;;;;;;13.18;60.62;100810.16;5019867;28;20049;-52
2022/09/22 00:31:56;;;;;;;7.22;3.28;;;;;;;13.14;60.20;100809.28;5019140;28;20145;-50
2022/09/22 00:34:25;;;;;;;6.95;3.10;;;;;;;13.13;60.86;100815.38;5020543;28;20042;-53
2022/09/22 00:36:52;;;;;;;5.25;2.88;;;;;;;13.10;60.45;100813.63;5018869;28;20056;-51
2022/09/22 00:39:19;;;;;;;6.13;3.05;;;;;;;13.09;60.56;100809.31;5020072;28;20132;-55
2022/09/22 00:41:48;;;;;;;6.00;2.70;;;;;;;13.10;60.92;100813.63;5006284;28;20047;-55
2022/09/22 00:47:13;;;;;;;8.48;3.63;;;;;;;13.06;61.29;100805.84;5053404;27;20402;-51
2022/09/22 00:50:03;;;;;;;7.32;3.15;;;;;;;12.97;61.17;100804.97;5020164;28;20726;-54
2022/09/22 00:52:38;;;;;;;6.18;3.22;;;;;;;13.01;60.74;100798.06;5023044;28;20051;-51
2022/09/22 00:55:13;;;;;;;6.25;3.08;;;;;;;12.99;61.55;100789.38;5033380;28;20050;-51
2022/09/22 00:57:43;;;;;;;6.05;3.08;;;;;;;12.98;62.06;100793.69;5015425;28;20056;-54
2022/09/22 01:00:11;;;;;;;7.38;3.30;;;;;;;12.97;61.14;100791.13;5011754;28;20137;-52
2022/09/22 01:02:38;;;;;;;6.25;3.25;;;;;;;12.96;61.52;100797.16;5007145;28;20149;-50
2022/09/22 01:05:06;;;;;;;8.98;3.50;;;;;;;12.94;62.16;100793.72;5023457;28;20046;-53
2022/09/22 01:07:32;;;;;;;6.47;3.47;;;;;;;12.91;61.97;100796.31;5010361;28;20052;-47
2022/09/22 01:09:59;;;;;;;5.95;4.03;;;;;;;12.90;61.62;100789.41;5008902;28;20054;-52
2022/09/22 01:12:28;;;;;;;6.28;3.88;;;;;;;12.89;61.32;100788.50;5017770;28;20131;-51
2022/09/22 01:34:03;;;;;;;7.78;4.47;;;;;;;13.20;62.76;100780.69;5038311;28;20425;-53
2022/09/22 01:36:40;;;;;;;8.88;5.15;;;;;;;12.88;62.55;100766.00;5016421;28;20129;-52
2022/09/22 01:39:18;;;;;;;7.20;4.93;;;;;;;12.79;62.79;100764.25;5008758;28;20046;-55
2022/09/22 01:47:10;;;;;;;7.10;3.58;;;;;;;12.68;63.37;100758.19;5017205;28;20776;-47
2022/09/22 01:49:42;;;;;;;7.80;4.03;;;;;;;12.66;63.46;100749.56;5003540;28;20545;-53
2022/09/22 01:52:15;;;;;;;7.05;3.45;;;;;;;12.63;62.38;100759.94;5012942;28;20128;-46
2022/09/22 01:54:44;;;;;;;10.50;3.58;;;;;;;12.58;63.64;100753.00;5003051;28;20057;-49
2022/09/22 01:57:16;;;;;;;8.57;3.80;;;;;;;12.56;63.41;100754.72;4996737;28;20049;-53
2022/09/22 01:59:49;;;;;;;8.30;3.85;;;;;;;12.53;62.81;100749.53;4999561;28;20050;-47
2022/09/22 02:02:25;;;;;;;8.27;4.00;;;;;;;12.50;63.13;100754.72;4995795;28;20046;-46
2022/09/22 02:04:57;;;;;;;9.73;4.88;;;;;;;12.48;63.01;100748.66;4996482;28;20050;-49
2022/09/22 02:07:32;;;;;;;10.82;4.95;;;;;;;12.46;63.06;100752.97;4995553;28;20528;-49
2022/09/22 02:10:05;;;;;;;8.85;4.22;;;;;;;12.45;63.67;100741.75;4999773;28;20073;-55
2022/09/22 02:12:34;;;;;;;12.52;4.53;;;;;;;12.42;63.09;100730.47;4996686;28;20678;-52
2022/09/22 02:15:02;;;;;;;13.60;4.78;;;;;;;12.41;62.99;100733.94;4991743;28;20542;-50
2022/09/22 02:17:31;;;;;;;8.38;4.07;;;;;;;12.40;63.04;100732.22;4996321;28;20045;-48
2022/09/22 02:20:04;;;;;;;10.10;4.07;;;;;;;12.38;64.01;100733.94;4998858;28;20135;-47
2022/09/22 02:22:31;;;;;;;9.82;4.60;;;;;;;12.36;63.43;100736.53;5008676;28;20148;-51
2022/09/22 02:24:58;;;;;;;9.07;4.20;;;;;;;12.33;63.62;100732.19;5003466;28;20136;-53
2022/09/22 02:27:35;;;;;;;8.52;4.32;;;;;;;12.32;63.80;100730.47;4995950;28;20085;-53
2022/09/22 02:30:08;;;;;;;8.80;4.32;;;;;;;12.30;63.93;100731.34;5006178;28;20154;-46
2022/09/22 02:32:37;;;;;;;9.32;3.65;;;;;;;12.29;64.59;100725.25;5004937;28;20449;-48
2022/09/22 02:35:05;;;;;;;8.85;3.58;;;;;;;12.29;63.63;100725.25;4994732;28;20502;-53
2022/09/22 02:40:18;;;;;;;9.68;5.05;;;;;;;12.24;64.61;100708.81;5036455;27;20402;-55
2022/09/22 02:43:02;;;;;;;10.50;5.15;;;;;;;12.18;64.58;100703.59;5002288;28;20402;-48
2022/09/22 02:45:37;;;;;;;10.15;5.57;;;;;;;12.20;63.87;100699.28;4994176;28;20498;-52
2022/09/22 02:48:12;;;;;;;12.85;5.85;;;;;;;12.16;63.83;100702.75;4996726;28;20129;-50
2022/09/22 02:50:41;;;;;;;11.18;5.13;;;;;;;12.16;64.16;100698.41;5008170;28;20054;-53
2022/09/22 02:53:13;;;;;;;9.77;4.88;;;;;;;12.13;64.06;100687.16;4997884;28;20085;-47
2022/09/22 02:55:40;;;;;;;10.90;5.50;;;;;;;12.10;63.72;100688.03;4986649;28;20103;-49
2022/09/22 02:58:07;;;;;;;11.57;5.00;;;;;;;12.08;64.31;100690.63;4985619;28;20053;-51
2022/09/22 03:00:34;;;;;;;11.00;5.88;;;;;;;12.05;64.30;100685.38;4987732;28;20140;-55
2022/09/22 03:03:00;;;;;;;10.65;5.45;;;;;;;12.03;64.88;100687.09;5024678;28;22041;-49
2022/09/22 03:05:27;;;;;;;12.10;5.88;;;;;;;12.00;65.11;100681.06;4989090;28;20176;-56
2022/09/22 03:07:53;;;;;;;11.75;5.47;;;;;;;11.97;65.08;100687.13;4988195;28;20046;-52
2022/09/22 03:10:20;;;;;;;12.85;5.32;;;;;;;11.94;63.96;100692.28;4993350;28;20050;-51
2022/09/22 03:12:47;;;;;;;13.75;5.97;;;;;;;11.90;64.85;100682.78;4997668;28;20050;-52
2022/09/22 03:15:33;;;;;;;12.65;6.72;;;;;;;11.86;64.31;100675.84;4987031;28;20386;-51
2022/09/22 03:18:00;;;;;;;15.50;6.70;;;;;;;11.83;65.07;100674.97;4993525;28;20054;-53
2022/09/22 03:20:27;;;;;;;14.07;6.38;;;;;;;11.80;65.07;100674.97;4989338;28;20070;-51
2022/09/22 03:22:53;;;;;;;14.35;7.40;;;;;;;11.79;65.23;100678.41;4994336;28;20047;-56
2022/09/22 03:25:20;;;;;;;12.57;5.20;;;;;;;11.77;65.57;100669.78;4990120;28;20050;-52
2022/09/22 03:27:47;;;;;;;11.10;5.40;;;;;;;11.72;65.06;100671.47;4991071;28;20142;-50
2022/09/22 03:30:13;;;;;;;11.48;5.25;;;;;;;11.67;65.46;100670.59;4995099;28;20133;-50
2022/09/22 03:32:40;;;;;;;11.13;5.55;;;;;;;11.62;65.05;100662.78;4998050;28;20230;-55
2022/09/22 03:35:07;;;;;;;11.82;6.25;;;;;;;11.60;64.76;100664.53;4992523;28;20049;-51
2022/09/22 03:37:34;;;;;;;11.45;5.53;;;;;;;11.59;64.51;100664.53;4991147;28;20070;-50
2022/09/22 03:40:02;;;;;;;13.57;6.97;;;;;;;11.56;65.72;100671.44;4996279;28;20472;-46
2022/09/22 03:42:28;;;;;;;9.55;4.65;;;;;;;11.55;64.90;100664.50;4990217;28;20042;-55
2022/09/22 03:44:55;;;;;;;12.98;5.75;;;;;;;11.52;64.79;100661.91;4994594;28;20490;-49
2022/09/22 03:47:22;;;;;;;15.18;6.30;;;;;;;11.51;64.74;100667.97;4989520;28;20141;-48
2022/09/22 03:49:48;;;;;;;12.90;6.30;;;;;;;11.48;65.84;100654.97;4986834;28;20093;-49
2022/09/22 03:52:15;;;;;;;12.52;5.95;;;;;;;11.46;65.26;100664.50;4978694;28;20153;-50
2022/09/22 03:54:42;;;;;;;12.25;6.03;;;;;;;11.44;65.60;100661.00;4980265;28;20153;-50
2022/09/22 03:57:08;;;;;;;11.25;5.93;;;;;;;11.41;66.02;100651.50;4983007;28;20486;-51
2022/09/22 03:59:35;;;;;;;13.02;6.40;;;;;;;11.40;65.97;100656.69;4971398;28;20046;-51
2022/09/22 04:02:03;;;;;;;12.18;5.95;;;;;;;11.38;65.49;100645.44;4978352;28;20141;-50
2022/09/22 04:04:30;;;;;;;10.00;5.38;;;;;;;11.34;66.03;100641.97;4981905;28;20104;-49
2022/09/22 04:06:56;;;;;;;13.75;5.32;;;;;;;11.33;66.27;100645.41;4984252;28;20060;-46
2022/09/22 04:09:23;;;;;;;11.00;5.43;;;;;;;11.32;65.45;100641.94;4985053;28;20096;-51
2022/09/22 04:11:49;;;;;;;12.57;5.63;;;;;;;11.34;65.94;100643.72;4982812;28;20161;-50
2022/09/22 04:14:16;;;;;;;12.40;6.53;;;;;;;11.32;65.94;100648.88;4984955;28;20050;-52
2022/09/22 04:16:43;;;;;;;10.27;5.38;;;;;;;11.32;65.68;100647.13;4983013;28;20064;-50
2022/09/22 04:19:10;;;;;;;10.43;5.18;;;;;;;11.30;66.28;100638.50;4988485;28;20041;-53
2022/09/22 04:21:37;;;;;;;12.23;6.03;;;;;;;11.31;66.44;100640.22;4987652;28;20684;-50
2022/09/22 04:24:09;;;;;;;12.23;5.90;;;;;;;11.32;66.71;100638.50;4988495;28;20152;-49
2022/09/22 04:26:37;;;;;;;11.43;5.45;;;;;;;11.32;66.17;100635.91;4990758;28;20085;-53
2022/09/22 04:29:17;;;;;;;14.98;5.80;;;;;;;11.31;66.14;100635.03;4975145;28;20141;-52
2022/09/22 04:31:43;;;;;;;12.20;5.70;;;;;;;11.32;66.67;100626.38;4973474;28;20063;-49
2022/09/22 04:34:10;;;;;;;11.10;5.22;;;;;;;11.32;65.64;100630.72;4971891;28;20074;-49
2022/09/22 04:36:36;;;;;;;12.75;6.15;;;;;;;11.35;65.89;100629.88;4979712;28;20126;-47
2022/09/22 04:39:03;;;;;;;12.18;5.20;;;;;;;11.36;66.54;100626.41;4976714;28;20158;-49
2022/09/22 04:41:29;;;;;;;12.10;5.22;;;;;;;11.36;66.81;100626.41;4981814;28;20705;-46
2022/09/22 04:43:56;;;;;;;13.05;6.95;;;;;;;11.36;66.57;100629.88;4980900;28;20403;-52
2022/09/22 04:46:25;;;;;;;14.38;5.45;;;;;;;11.36;65.94;100627.28;4976756;28;20839;-47
2022/09/22 04:48:52;;;;;;;12.40;6.70;;;;;;;11.35;65.92;100627.28;4983115;28;20631;-51
2022/09/22 04:51:18;;;;;;;16.08;6.32;;;;;;;11.35;66.56;100625.53;4989128;28;20157;-53
2022/09/22 04:53:45;;;;;;;18.95;6.90;;;;;;;11.35;66.92;100635.06;4987129;28;20136;-47
2022/09/22 04:56:11;;;;;;;18.05;6.43;;;;;;;11.34;66.19;100631.59;4985324;28;20141;-50
2022/09/22 04:58:38;;;;;;;15.48;6.07;;;;;;;11.34;67.28;100638.53;4986264;28;20047;-49
2022/09/22 05:01:06;;;;;;;12.80;6.28;;;;;;;11.34;67.00;100633.34;4980875;28;20046;-53
2022/09/22 05:03:36;;;;;;;18.17;7.00;;;;;;;11.33;66.91;100632.47;4986955;28;20062;-49
2022/09/22 05:06:05;;;;;;;18.75;6.28;;;;;;;11.31;66.04;100635.03;4983208;28;20046;-49
2022/09/22 05:08:31;;;;;;;14.65;5.90;;;;;;;11.30;67.18;100633.31;5002137;28;20121;-51
2022/09/22 05:10:58;;;;;;;16.15;6.20;;;;;;;11.29;67.52;100647.13;5001827;28;20052;-56
2022/09/22 05:13:25;;;;;;;13.90;7.22;;;;;;;11.28;66.57;100645.41;5001982;28;20144;-51
2022/09/22 05:15:52;;;;;;;16.92;6.82;;;;;;;11.29;67.74;100643.69;5012577;28;20153;-48
2022/09/22 05:18:19;;;;;;;21.15;6.95;;;;;;;11.29;67.43;100647.13;5004505;28;20106;-55
2022/09/22 05:20:46;;;;;;;16.23;6.68;;;;;;;11.28;67.74;100640.22;5003860;28;20053;-52
2022/09/22 05:23:13;;;;;;;15.60;6.90;;;;;;;11.28;67.92;100640.22;5004093;28;20052;-52
2022/09/22 05:25:40;;;;;;;18.73;7.05;;;;;;;11.29;67.98;100641.94;5004019;28;20116;-47
2022/09/22 05:28:07;;;;;;;22.80;7.30;;;;;;;11.28;68.39;100642.81;5000658;28;20056;-49
2022/09/22 05:30:33;;;;;;;19.50;7.28;;;;;;;11.27;68.42;100638.47;5003392;28;21304;-53
2022/09/22 05:33:00;;;;;;;20.90;7.90;;;;;;;11.27;67.76;100635.88;5003197;28;20137;-46
2022/09/22 05:35:26;;;;;;;16.02;7.18;;;;;;;11.26;68.22;100631.56;5002492;28;20137;-48
2022/09/22 05:37:56;;;;;;;15.50;7.40;;;;;;;11.27;67.71;100632.41;5002312;28;20050;-51
2022/09/22 05:40:24;;;;;;;19.30;8.35;;;;;;;11.25;67.52;100624.63;5004208;28;20145;-51
2022/09/22 05:42:52;;;;;;;16.90;7.85;;;;;;;11.26;67.54;100626.38;5002013;28;20046;-47
2022/09/22 05:45:20;;;;;;;21.45;8.23;;;;;;;11.26;68.83;100634.16;4999485;28;20148;-49
2022/09/22 05:47:47;;;;;;;25.98;8.55;;;;;;;11.26;68.06;100626.38;5010077;28;20049;-52
2022/09/22 05:50:16;;;;;;;18.48;7.57;;;;;;;11.25;68.14;100627.22;4997786;28;20042;-47
2022/09/22 05:52:42;;;;;;;17.23;7.72;;;;;;;11.25;67.68;100629.81;5002697;28;20069;-49
2022/09/22 05:55:10;;;;;;;20.77;8.77;;;;;;;11.24;67.71;100617.72;5015317;28;20509;-53
2022/09/22 05:57:37;;;;;;;20.95;7.43;;;;;;;11.23;69.09;100631.56;4999649;28;20053;-50
2022/09/22 06:00:06;;;;;;;19.52;8.63;;;;;;;11.26;68.80;100626.38;5001764;28;20858;-53
2022/09/22 06:02:33;;;;;;;21.77;7.93;;;;;;;11.25;68.96;100626.38;4974089;28;20113;-52
2022/09/22 06:04:59;;;;;;;18.23;8.00;;;;;;;11.26;68.14;100626.38;4973098;28;20065;-51
2022/09/22 06:07:26;;;;;;;19.05;8.05;;;;;;;11.26;69.06;100626.38;4980564;28;20137;-52
2022/09/22 06:09:53;;;;;;;16.48;8.43;;;;;;;11.28;68.56;100619.47;4971461;28;20759;-47
2022/09/22 06:12:19;;;;;;;18.80;9.20;;;;;;;11.30;69.12;100622.06;4975893;28;20397;-51
2022/09/22 06:14:46;;;;;;;18.33;9.07;;;;;;;11.34;68.21;100622.97;4976752;28;20410;-45
2022/09/22 06:17:13;;;;;;;19.45;8.30;;;;;;;11.37;69.30;100628.13;4977375;28;20063;-49
2022/09/22 06:19:39;;;;;;;21.88;9.23;;;;;;;11.40;68.91;100620.38;4974276;28;20042;-49
2022/09/22 06:22:07;;;;;;;21.08;9.30;;;;;;;11.44;68.62;100620.38;4975753;28;20055;-47
2022/09/22 06:24:34;;;;;;;19.77;9.60;;;;;;;11.48;69.31;100626.44;4984630;28;20048;-54
2022/09/22 06:27:00;;;;;;;22.60;9.63;;;;;;;11.52;69.65;100617.81;4978227;28;20141;-53
2022/09/22 06:29:27;;;;;;;21.15;10.13;;;;;;;11.56;69.50;100614.34;4976098;28;20133;-50
2022/09/22 06:31:53;;;;;;;25.00;11.02;;;;;;;11.61;70.02;100614.38;4980634;28;20170;-51
2022/09/22 06:34:21;;;;;;;24.88;10.85;;;;;;;11.68;69.64;100620.44;4973598;28;20084;-51
2022/09/22 06:36:49;;;;;;;23.70;10.00;;;;;;;11.72;69.60;100614.38;4982437;28;20145;-53
2022/09/22 06:39:15;;;;;;;26.17;11.23;;;;;;;11.78;69.64;100619.59;4980903;28;20145;-48
2022/09/22 06:41:43;;;;;;;24.77;11.20;;;;;;;11.86;69.81;100621.34;4984500;28;20137;-53
2022/09/22 06:44:11;;;;;;;22.58;10.55;;;;;;;11.90;69.60;100618.75;4979663;28;20070;-51
2022/09/22 06:46:38;;;;;;;25.77;10.93;;;;;;;11.98;68.97;100617.88;4978445;28;20137;-51
2022/09/22 06:49:04;;;;;;;25.70;10.77;;;;;;;12.04;69.36;100616.16;4978260;28;20139;-51
2022/09/22 06:51:33;;;;;;;19.92;9.35;;;;;;;12.11;69.04;100609.25;4983541;28;20069;-50
2022/09/22 06:54:03;;;;;;;21.48;9.88;;;;;;;12.16;70.43;100607.53;4976282;28;20078;-50
2022/09/22 06:56:33;;;;;;;19.27;9.13;;;;;;;12.25;70.24;100614.44;4976682;28;20050;-45
2022/09/22 06:59:07;;;;;;;22.00;9.20;;;;;;;12.31;69.06;100598.88;5007216;28;20419;-50
2022/09/22 07:01:44;;;;;;;19.65;7.97;;;;;;;12.40;69.36;100607.50;4975760;28;20149;-50
2022/09/22 07:04:11;;;;;;;23.98;10.00;;;;;;;12.47;70.45;100601.44;4976829;28;22168;-52
2022/09/22 07:06:39;;;;;;;22.20;8.80;;;;;;;12.58;70.62;100597.09;4980381;28;20129;-50
2022/09/22 07:09:07;;;;;;;22.88;8.98;;;;;;;12.67;69.16;100600.53;4977165;28;20046;-53
2022/09/22 07:11:35;;;;;;;23.42;9.07;;;;;;;12.78;69.53;100592.69;4980120;28;20042;-51
2022/09/22 07:14:07;;;;;;;23.95;9.80;;;;;;;12.91;69.31;100598.72;5009913;28;20108;-53
2022/09/22 07:16:34;;;;;;;21.48;9.10;;;;;;;13.09;69.57;100593.47;4980620;28;20065;-54
2022/09/22 07:19:03;;;;;;;19.23;9.60;;;;;;;13.41;68.66;100596.75;5012787;28;20211;-48
2022/09/22 07:21:35;;;;;;;19.65;9.52;;;;;;;13.81;68.58;100585.25;4980602;28;20502;-47
2022/09/22 07:24:03;;;;;;;21.17;8.95;;;;;;;14.24;68.36;100585.75;4989122;28;20529;-50
2022/09/22 07:26:33;;;;;;;20.50;9.25;;;;;;;14.47;67.58;100582.06;5012250;28;20482;-49
2022/09/22 07:29:03;;;;;;;19.35;9.23;;;;;;;14.59;67.28;100581.94;4976263;28;20094;-46
2022/09/22 07:31:30;;;;;;;;;;;;;;;14.61;67.61;100585.41;4978344;28;20057;-56
2022/09/22 07:33:59;;;;;;;19.35;8.43;;;;;;;14.71;66.78;100586.16;4982859;28;19930;-55
2022/09/22 07:36:28;;;;;;;21.52;9.30;;;;;;;14.79;66.57;100588.69;4981663;28;20538;-54
2022/09/22 07:39:01;;;;;;;22.15;8.93;;;;;;;14.88;66.50;100588.59;4982782;28;20046;-51
2022/09/22 07:41:30;;;;;;;20.27;9.35;;;;;;;14.96;66.99;100590.25;5008688;28;20042;-53
2022/09/22 07:46:45;;;;;;;19.42;9.85;;;;;;;15.12;66.99;100594.41;4975421;28;20523;-46
2022/09/22 07:49:14;;;;;;;17.42;8.40;;;;;;;15.24;66.78;100600.34;4987794;28;20438;-52
2022/09/22 07:51:41;;;;;;;15.98;8.13;;;;;;;15.36;66.61;100600.16;4983667;28;20050;-53
2022/09/22 07:54:07;;;;;;;19.30;9.20;;;;;;;15.47;66.87;100607.84;4987147;28;20050;-49
2022/09/22 07:56:40;;;;;;;15.68;7.25;;;;;;;15.56;66.78;100609.47;4982844;28;20055;-53
2022/09/22 07:59:09;;;;;;;17.08;8.93;;;;;;;15.67;66.54;100604.06;4973725;28;20093;-55
2022/09/22 08:01:38;;;;;;;15.48;8.48;;;;;;;15.79;66.67;100593.47;5007339;28;20566;-51
2022/09/22 08:04:05;;;;;;;17.35;8.30;;;;;;;15.91;66.22;100594.16;4986294;28;20046;-52
2022/09/22 08:06:33;;;;;;;16.75;9.32;;;;;;;15.98;65.75;100600.16;4989847;28;20070;-49
2022/09/22 08:09:02;;;;;;;19.65;8.65;;;;;;;16.06;65.95;100595.66;4988761;28;20047;-52
2022/09/22 08:11:29;;;;;;;15.40;8.32;;;;;;;16.19;65.72;100586.72;4980712;28;20074;-52
2022/09/22 08:13:59;;;;;;;16.60;8.48;;;;;;;16.44;65.64;100580.19;4983153;28;20057;-49
2022/09/22 08:16:28;;;;;;;16.02;8.15;;;;;;;16.73;65.57;100580.53;4987589;28;20524;-49
2022/09/22 08:18:56;;;;;;;16.60;8.13;;;;;;;17.07;64.44;100582.47;4986864;28;20050;-52
2022/09/22 08:21:24;;;;;;;18.83;8.38;;;;;;;17.39;64.03;100583.50;4987060;28;20129;-53
2022/09/22 08:23:52;;;;;;;14.45;7.53;;;;;;;17.65;64.15;100576.81;4993255;28;20069;-53
2022/09/22 08:26:19;;;;;;;15.07;7.78;;;;;;;17.86;63.74;100579.81;4986557;28;20133;-55
2022/09/22 08:28:51;;;;;;;16.98;8.25;;;;;;;18.06;63.45;100581.06;4994441;28;20081;-52
2022/09/22 08:31:19;;;;;;;14.45;7.75;;;;;;;18.31;63.45;100586.56;4986423;28;20154;-53
2022/09/22 08:33:48;;;;;;;13.43;7.05;;;;;;;18.55;62.58;100585.94;4981334;28;20101;-56
2022/09/22 08:36:15;;;;;;;15.63;7.45;;;;;;;18.70;62.80;100582.91;4990998;28;20087;-52
2022/09/22 08:38:47;;;;;;;16.05;7.78;;;;;;;18.93;62.30;100581.38;4978577;28;20713;-56
2022/09/22 08:41:37;;;;;;;14.95;7.90;;;;;;;19.24;62.26;100593.63;4995435;28;20146;-52
2022/09/22 08:46:43;;;;;;;15.52;9.13;;;;;;;19.81;60.31;100598.00;5032565;27;20424;-51
2022/09/22 08:51:59;;;;;;;17.35;9.57;;;;;;;19.97;59.28;100593.09;5045254;27;20411;-50
2022/09/22 08:54:30;;;;;;;14.43;7.93;;;;;;;20.16;60.16;100592.50;5019370;28;20073;-51
2022/09/22 08:59:50;;;;;;;16.10;7.28;;;;;;;20.37;58.92;100595.31;5022685;27;20420;-51
2022/09/22 09:20:43;;;;;;;13.10;6.68;;;;;;;21.92;55.79;100571.94;5018372;28;20421;-42
2022/09/22 09:23:16;;;;;;;11.70;7.38;;;;;;;22.05;55.27;100573.13;5013270;28;20045;-43
2022/09/22 09:25:48;;;;;;;10.68;6.00;;;;;;;22.12;54.52;100575.50;5000414;28;20062;-41
2022/09/22 09:28:19;;;;;;;10.85;6.43;;;;;;;22.12;55.43;100568.44;4995539;28;20598;-44
2022/09/22 09:36:21;;;;;;;10.60;5.63;;;;;;;22.26;54.31;100565.19;5078172;27;20402;-41
2022/09/22 09:38:53;;;;;;;10.13;6.03;;;;;;;22.22;54.10;100558.34;5011882;28;20050;-45
2022/09/22 09:41:23;;;;;;;9.18;6.03;;;;;;;22.11;53.24;100550.03;5002822;28;20067;-46
2022/09/22 09:43:53;;;;;;;8.25;5.00;;;;;;;22.04;53.96;100550.31;5007695;28;20132;-44
2022/09/22 09:51:43;;;;;;;9.73;5.07;;;;;;;22.19;53.13;100532.09;5029076;28;20409;-44
2022/09/22 09:54:12;;;;;;;6.78;4.43;;;;;;;22.29;52.94;100528.13;4959680;28;20061;-41
2022/09/22 09:57:06;;;;;;;6.05;4.32;;;;;;;22.33;52.32;100534.97;4962802;28;20062;-42
2022/09/22 10:02:50;;;;;;;8.30;3.88;;;;;;;22.55;52.12;100534.03;4972789;28;20471;-43
2022/09/22 10:05:21;;;;;;;4.38;3.13;;;;;;;22.72;52.08;100529.78;4982754;28;20058;-40
2022/09/22 10:07:55;;;;;;;5.75;2.97;;;;;;;22.81;51.12;100524.09;4959258;28;20070;-44
2022/09/22 10:16:14;;;;;;;8.40;4.68;;;;;;;23.24;50.58;100517.69;5102316;27;20762;-38
2022/09/22 10:18:41;;;;;;;4.38;2.95;;;;;;;23.48;50.18;100512.16;5058397;28;20055;-43
2022/09/22 10:21:15;;;;;;;4.40;2.03;;;;;;;23.64;49.71;100506.94;5080588;28;20040;-47
2022/09/22 10:23:44;;;;;;;5.13;2.35;;;;;;;23.80;48.90;100507.00;5082270;28;20127;-42
2022/09/22 10:26:14;;;;;;;3.83;2.20;;;;;;;23.88;48.04;100493.41;5088655;28;20075;-41
2022/09/22 10:28:41;;;;;;;3.20;2.08;;;;;;;23.96;48.13;100493.00;5086810;28;20067;-39
2022/09/22 10:31:19;;;;;;;7.22;2.67;;;;;;;24.09;48.72;100483.50;5086489;28;20040;-41
2022/09/22 10:33:57;;;;;;;3.80;2.33;;;;;;;24.25;48.55;100490.66;5086773;28;20458;-40
2022/09/22 10:36:25;;;;;;;3.28;2.33;;;;;;;24.36;47.96;100490.94;5084792;28;20135;-41
2022/09/22 10:38:53;;;;;;;4.80;2.22;;;;;;;24.47;47.47;100485.03;5082640;28;20126;-41
2022/09/22 10:41:32;;;;;;;4.13;2.20;;;;;;;24.36;46.63;100482.13;5085970;28;20048;-40
2022/09/22 10:44:12;;;;;;;4.78;3.03;;;;;;;24.28;46.61;100489.63;5097611;28;20471;-41
2022/09/22 10:47:26;;;;;;;6.72;2.17;;;;;;;24.04;46.31;100488.16;5087506;28;20044;-43
2022/09/22 10:50:27;;;;;;;4.53;2.33;;;;;;;23.90;46.37;100480.06;5084698;28;20590;-47
2022/09/22 10:53:22;;;;;;;2.67;2.08;;;;;;;23.92;46.57;100478.22;5087096;28;20044;-45
2022/09/22 10:56:04;;;;;;;5.80;3.40;;;;;;;23.86;46.63;100474.97;5088974;28;20433;-41
2022/09/22 10:58:43;;;;;;;;;;;;;;;23.80;46.59;100477.91;5084829;28;20123;-41
2022/09/22 11:13:07;;;;;;;6.68;3.38;;;;;;;23.59;47.28;100467.53;5038731;28;20135;-42
2022/09/22 11:26:43;;;;;;;5.15;2.70;;;;;;;23.17;47.81;100444.94;5047899;27;20412;-42
2022/09/22 11:29:50;;;;;;;4.85;2.60;;;;;;;23.14;47.80;100455.66;5055742;28;20083;-44
2022/09/22 11:40:31;;;;;;;6.47;3.92;;;;;;;23.09;46.12;100440.00;5041393;27;20433;-42
2022/09/22 11:46:21;;;;;;;3.78;2.55;;;;;;;22.79;47.31;100446.72;5039444;28;20398;-45
2022/09/22 11:49:25;;;;;;;3.53;2.30;;;;;;;22.76;47.75;100440.72;5004255;28;20054;-42
2022/09/22 11:52:28;;;;;;;3.85;2.45;;;;;;;22.71;47.42;100444.44;5009590;28;20046;-41
2022/09/22 11:57:52;;;;;;;5.55;1.85;;;;;;;22.79;47.33;100430.00;5077467;27;20400;-44
2022/09/22 12:00:20;;;;;;;4.20;2.63;;;;;;;22.75;47.88;100434.59;5023561;28;20459;-45
2022/09/22 12:02:55;;;;;;;5.18;2.70;;;;;;;22.67;46.67;100426.19;5029976;28;20049;-39
2022/09/22 12:05:38;;;;;;;6.97;2.47;;;;;;;22.62;47.18;100422.91;5031045;28;20049;-43
2022/09/22 12:10:44;;;;;;;8.70;4.03;;;;;;;22.72;46.62;100419.75;5027332;27;20414;-42
2022/09/22 12:13:15;;;;;;;5.10;4.05;;;;;;;22.70;46.89;100416.31;4991989;28;20101;-41
2022/09/22 12:18:36;;;;;;;6.63;2.72;;;;;;;22.57;46.55;100410.78;5036169;28;20843;-39
2022/09/22 12:21:29;;;;;;;4.95;2.63;;;;;;;22.58;46.96;100409.00;5018089;28;20132;-41
2022/09/22 12:24:01;;;;;;;4.45;2.33;;;;;;;22.56;46.58;100409.06;5018138;28;20089;-43
2022/09/22 12:26:32;;;;;;;4.40;2.17;;;;;;;22.53;46.57;100413.63;5013619;28;20081;-42
2022/09/22 12:29:01;;;;;;;5.38;2.45;;;;;;;22.53;46.80;100403.06;5012538;28;20078;-39
2022/09/22 12:31:35;;;;;;;;;;;;;;;22.44;46.87;100399.94;5013046;28;20058;-43
2022/09/22 12:34:04;;;;;;;4.80;2.45;;;;;;;22.63;46.94;100399.06;5011910;28;20150;-41
2022/09/22 12:36:36;;;;;;;4.93;2.63;;;;;;;22.74;46.71;100395.91;5009994;28;20053;-44
2022/09/22 12:39:23;;;;;;;4.57;2.13;;;;;;;22.78;47.19;100397.47;5007517;28;20050;-43
2022/09/22 12:47:17;;;;;;;5.28;2.30;;;;;;;23.06;46.10;100385.56;5027343;27;20900;-45
2022/09/22 12:49:55;;;;;;;6.30;2.42;;;;;;;23.07;46.12;100381.97;5008755;28;20116;-44
2022/09/22 12:57:57;;;;;;;4.47;3.45;;;;;;;23.04;46.16;100382.16;5057815;27;20390;-41
2022/09/22 13:06:22;;;;;;;3.97;2.08;;;;;;;23.03;46.51;100369.84;5007682;27;20419;-48
2022/09/22 13:12:08;;;;;;;5.13;4.63;;;;;;;23.13;46.51;100364.97;5024522;27;20404;-41
2022/09/22 13:14:56;;;;;;;4.68;3.70;;;;;;;23.11;45.78;100362.38;5020437;28;20065;-40
2022/09/22 13:23:04;;;;;;;4.00;2.90;;;;;;;23.22;42.79;100346.00;5013085;27;20885;-42
2022/09/22 13:25:31;;;;;;;4.75;3.00;;;;;;;23.02;44.77;100348.78;5005823;28;20085;-42
2022/09/22 13:30:44;;;;;;;2.83;1.83;;;;;;;22.91;45.08;100341.41;5109047;27;20454;-42
2022/09/22 13:33:22;;;;;;;3.75;1.35;;;;;;;22.91;45.98;100344.06;5067156;28;20102;-44
2022/09/22 13:35:54;;;;;;;2.90;1.20;;;;;;;22.98;45.25;100334.91;5059335;28;20049;-45
2022/09/22 13:38:21;;;;;;;3.13;1.45;;;;;;;23.06;45.89;100332.72;5061399;28;20036;-45
2022/09/22 13:40:48;;;;;;;2.50;1.05;;;;;;;23.14;45.75;100328.84;5065698;28;20045;-43
2022/09/22 13:43:39;;;;;;;2.58;2.10;;;;;;;23.20;45.32;100339.09;5062222;28;20150;-42
2022/09/22 13:46:16;;;;;;;5.00;1.45;;;;;;;23.23;45.30;100328.34;5065892;28;20053;-43
2022/09/22 13:48:43;;;;;;;5.70;1.67;;;;;;;23.25;45.41;100315.94;5064275;28;20048;-45
2022/09/22 13:51:13;;;;;;;7.78;1.60;;;;;;;23.27;45.26;100323.78;5064604;28;20084;-44
2022/09/22 13:53:48;;;;;;;3.78;1.60;;;;;;;23.24;44.37;100316.88;5059161;28;20056;-39
2022/09/22 13:56:17;;;;;;;3.75;1.67;;;;;;;23.18;44.91;100311.91;5061907;28;20669;-45
2022/09/22 13:58:49;;;;;;;5.60;1.23;;;;;;;23.14;44.70;100318.28;5061738;28;20044;-40
2022/09/22 14:03:54;;;;;;;4.65;1.60;;;;;;;23.09;44.51;100311.44;5046442;28;20406;-41
2022/09/22 14:06:24;;;;;;;3.03;1.40;;;;;;;23.08;44.56;100298.31;5022969;28;20078;-40
2022/09/22 14:08:53;;;;;;;6.53;1.77;;;;;;;23.05;44.42;100304.59;5035064;28;20045;-41